Terminal Aerodrome Forecast
Issued by NWS

Home | Current Version | Previous Version | Text Only | Print | Product List | Glossary On
Versions: 1 2 3 4 5 6 7 8 9 10 11 12 13 14 15 16
000
FTAK31 PAJN 311141
TAFAJN
TAF
PAJN 311141Z 3112/0112 00000KT P6SM BKN100 WS020/05030KT
     FM311700 14010KT P6SM VCSH SCT070 BKN100 WS020/05020KT
     FM312100 24008KT P6SM BKN100
     FM010300 16006KT P6SM SCT100=

USA.gov is the U.S. government's official web portal to all federal, state and local government web resources and services.